createdAt,value
2019-01-24T00:01:50.161Z,99.43
2019-01-24T00:04:19.009Z,119.27
2019-01-24T00:06:47.913Z,106.27
2019-01-24T00:09:36.120Z,112.57
2019-01-24T00:12:44.232Z,110.27
2019-01-24T00:15:25.578Z,122.83
2019-01-24T00:18:06.840Z,113.53
2019-01-24T00:20:48.230Z,120.13
2019-01-24T00:26:20.490Z,129.50
2019-01-24T00:29:01.960Z,131.20
2019-01-24T00:31:43.033Z,116.70
2019-01-24T00:34:25.491Z,117.73
2019-01-24T00:37:06.690Z,140.33
2019-01-24T00:39:49.301Z,121.00
2019-01-24T00:42:30.264Z,125.70
2019-01-24T00:44:59.150Z,127.30
2019-01-24T00:47:28.064Z,89.73
2019-01-24T00:50:16.892Z,123.90
2019-01-24T00:52:57.898Z,113.23
2019-01-24T00:55:38.815Z,126.03
2019-01-24T01:01:26.381Z,124.97
2019-01-24T01:04:06.966Z,129.73
2019-01-24T01:06:49.502Z,128.93
2019-01-24T01:09:30.745Z,153.03
2019-01-24T01:12:11.514Z,130.70
2019-01-24T01:14:52.350Z,123.87
2019-01-24T01:21:01.550Z,115.77
2019-01-24T01:26:34.221Z,129.67
2019-01-24T01:29:14.890Z,140.57
2019-01-24T01:31:56.608Z,107.27
2019-01-24T01:34:38.042Z,123.37
2019-01-24T01:37:20.614Z,108.37
2019-01-24T01:40:01.536Z,95.63
2019-01-24T01:42:42.540Z,91.13
2019-01-24T01:45:24.724Z,91.20
2019-01-24T01:48:05.692Z,106.43
2019-01-24T01:50:47.276Z,98.97
2019-01-24T01:53:27.979Z,108.77
2019-01-24T01:56:09.151Z,108.70
2019-01-24T01:58:51.178Z,98.77
2019-01-24T02:01:32.136Z,115.03
2019-01-24T02:04:14.070Z,113.27
2019-01-24T02:06:55.986Z,101.27
2019-01-24T02:09:37.492Z,110.30
2019-01-24T02:12:19.626Z,99.60
2019-01-24T02:15:00.705Z,116.30
2019-01-24T02:17:41.946Z,110.83
2019-01-24T02:20:22.702Z,113.60
2019-01-24T02:23:04.030Z,103.93
2019-01-24T02:25:46.026Z,101.97
2019-01-24T02:28:28.398Z,136.40
2019-01-24T02:31:09.385Z,138.43
2019-01-24T02:33:56.422Z,127.17
2019-01-24T02:36:39.002Z,143.67
2019-01-24T02:39:08.133Z,131.73
2019-01-24T02:41:56.324Z,148.87
2019-01-24T02:47:40.695Z,149.83
2019-01-24T02:50:34.490Z,138.27
2019-01-24T02:53:15.517Z,155.17
2019-01-24T02:55:56.907Z,151.07
2019-01-24T02:58:40.709Z,161.03
2019-01-24T03:01:21.872Z,147.73
2019-01-24T03:04:03.342Z,143.80
2019-01-24T03:06:47.586Z,161.77
2019-01-24T03:09:28.823Z,137.60
2019-01-24T03:12:09.803Z,130.93
2019-01-24T03:14:38.747Z,137.63
2019-01-24T03:17:26.885Z,132.27
2019-01-24T03:20:08.062Z,134.03
2019-01-24T03:22:48.964Z,127.20
2019-01-24T03:25:30.109Z,132.80
2019-01-24T03:28:10.920Z,120.60
2019-01-24T03:30:53.348Z,118.20
2019-01-24T03:33:34.885Z,129.20
2019-01-24T03:36:15.839Z,118.70
2019-01-24T03:38:57.135Z,128.57
2019-01-24T03:41:38.022Z,117.00
2019-01-24T03:47:02.917Z,120.47
2019-01-24T03:49:44.680Z,120.07
2019-01-24T03:52:25.766Z,117.40
2019-01-24T03:58:27.216Z,125.27
2019-01-24T04:01:09.350Z,114.47
2019-01-24T04:03:50.743Z,106.40
2019-01-24T04:06:31.375Z,105.57
2019-01-24T04:09:13.563Z,105.77
2019-01-24T04:11:54.707Z,103.00
2019-01-24T04:17:46.468Z,90.20
2019-01-24T04:20:27.558Z,102.63
2019-01-24T04:23:08.437Z,113.77
2019-01-24T04:25:51.225Z,100.20
2019-01-24T04:28:33.265Z,104.47
2019-01-24T04:31:13.983Z,93.77
2019-01-24T04:37:05.224Z,90.17
2019-01-24T04:39:45.967Z,87.33
2019-01-24T04:45:46.285Z,89.10
2019-01-24T04:48:27.118Z,92.10
2019-01-24T04:51:09.079Z,102.27
2019-01-24T04:59:46.551Z,95.60
2019-01-24T05:05:19.032Z,98.00
2019-01-24T05:08:07.229Z,95.43
2019-01-24T05:10:48.007Z,101.73
2019-01-24T05:13:29.398Z,94.00
2019-01-24T05:16:11.439Z,111.13
2019-01-24T05:18:54.006Z,97.87
2019-01-24T05:21:34.640Z,100.13
2019-01-24T05:24:15.171Z,102.63
2019-01-24T05:26:55.915Z,89.70
2019-01-24T05:29:36.867Z,98.30
2019-01-24T05:32:18.311Z,99.93
2019-01-24T05:34:59.339Z,102.33
2019-01-24T05:37:28.276Z,104.40
2019-01-24T05:40:16.498Z,102.87
2019-01-24T05:46:35.368Z,100.90
2019-01-24T05:49:17.056Z,100.37
2019-01-24T05:51:57.932Z,99.07
2019-01-24T05:54:40.485Z,96.33
2019-01-24T05:57:22.953Z,97.13
2019-01-24T06:03:23.239Z,113.40
2019-01-24T06:06:03.971Z,97.97
2019-01-24T06:08:45.263Z,94.47
2019-01-24T06:11:27.458Z,90.23
2019-01-24T06:17:11.915Z,105.30
2019-01-24T06:19:53.360Z,103.07
2019-01-24T06:22:34.446Z,105.27
2019-01-24T06:25:16.527Z,100.90
2019-01-24T06:27:57.846Z,104.43
2019-01-24T06:30:39.381Z,95.93
2019-01-24T06:33:08.248Z,95.93
2019-01-24T06:35:56.436Z,93.63
2019-01-24T06:38:37.428Z,93.43
2019-01-24T06:41:18.266Z,84.43
2019-01-24T06:44:00.277Z,99.47
2019-01-24T06:46:41.634Z,90.27
2019-01-24T06:49:22.296Z,93.97
2019-01-24T06:52:03.008Z,95.17
2019-01-24T06:54:44.415Z,97.30
2019-01-24T06:57:24.883Z,92.57
2019-01-24T07:00:06.184Z,94.40
2019-01-24T07:02:48.107Z,91.47
2019-01-24T07:05:29.758Z,102.80
2019-01-24T07:08:10.274Z,99.60
2019-01-24T07:10:39.214Z,102.93
2019-01-24T07:13:08.102Z,101.07
2019-01-24T07:19:28.098Z,99.33
2019-01-24T07:22:09.633Z,95.73
2019-01-24T07:27:34.592Z,97.63
2019-01-24T07:30:15.129Z,97.03
2019-01-24T07:32:55.759Z,99.97
2019-01-24T07:35:39.713Z,102.20
2019-01-24T07:41:06.763Z,90.67
2019-01-24T07:43:47.606Z,95.87
2019-01-24T07:46:28.772Z,90.47
2019-01-24T07:49:09.828Z,103.13
2019-01-24T07:51:51.362Z,97.63
2019-01-24T07:54:32.464Z,101.57
2019-01-24T07:57:13.303Z,96.30
2019-01-24T08:02:58.796Z,91.27
2019-01-24T08:05:39.402Z,89.43
2019-01-24T08:08:20.720Z,94.13
2019-01-24T08:11:02.116Z,93.53
2019-01-24T08:13:43.493Z,94.30
2019-01-24T08:16:24.130Z,90.97
2019-01-24T08:19:06.264Z,87.10
2019-01-24T08:21:48.574Z,85.73
2019-01-24T08:24:31.326Z,93.40
2019-01-24T08:27:12.392Z,81.33
2019-01-24T08:29:53.769Z,90.23
2019-01-24T08:35:19.113Z,85.30
2019-01-24T08:37:48.383Z,85.50
2019-01-24T08:40:37.047Z,82.67
2019-01-24T08:43:29.753Z,85.93
2019-01-24T08:46:10.952Z,87.53
2019-01-24T08:51:39.962Z,87.87
2019-01-24T08:54:40.502Z,80.43
2019-01-24T08:57:22.002Z,85.43
2019-01-24T09:00:03.082Z,84.17
2019-01-24T09:02:44.452Z,78.43
2019-01-24T09:05:26.153Z,81.70
2019-01-24T09:08:07.392Z,89.23
2019-01-24T09:10:48.393Z,85.50
2019-01-24T09:13:29.406Z,71.17
2019-01-24T09:16:10.334Z,81.37
2019-01-24T09:18:51.128Z,84.90
2019-01-24T09:21:35.524Z,80.57
2019-01-24T09:24:16.574Z,73.57
2019-01-24T09:26:57.750Z,78.87
2019-01-24T09:29:38.686Z,77.37
2019-01-24T09:32:21.263Z,76.03
2019-01-24T09:35:02.182Z,75.30
2019-01-24T09:40:33.368Z,68.97
2019-01-24T09:43:14.886Z,67.23
2019-01-24T09:49:14.886Z,77.97
2019-01-24T09:51:56.304Z,72.90
2019-01-24T09:54:37.280Z,71.07
2019-01-24T09:57:18.542Z,75.23
2019-01-24T09:59:59.457Z,70.37
2019-01-24T10:02:28.394Z,70.13
2019-01-24T10:05:31.084Z,72.73
2019-01-24T10:08:01.012Z,72.10
2019-01-24T10:10:41.651Z,68.40
2019-01-24T10:13:23.064Z,74.43
2019-01-24T10:18:48.202Z,86.67
2019-01-24T10:21:29.382Z,80.40
2019-01-24T10:24:16.020Z,78.43
2019-01-24T10:26:56.952Z,81.77
2019-01-24T10:29:39.066Z,80.40
2019-01-24T10:32:20.018Z,73.40
2019-01-24T10:35:00.760Z,75.60
2019-01-24T10:37:43.450Z,80.37
2019-01-24T10:40:24.379Z,73.77
2019-01-24T10:46:15.799Z,79.40
2019-01-24T10:48:57.282Z,89.27
2019-01-24T10:51:38.214Z,71.90
2019-01-24T10:54:19.011Z,82.17
2019-01-24T10:57:00.860Z,79.93
2019-01-24T10:59:42.248Z,72.10
2019-01-24T11:02:23.742Z,82.67
2019-01-24T11:05:04.635Z,87.50
2019-01-24T11:07:45.524Z,71.27
2019-01-24T11:10:28.397Z,74.53
2019-01-24T11:13:10.113Z,81.00
2019-01-24T11:15:52.593Z,71.30
2019-01-24T11:18:34.551Z,80.53
2019-01-24T11:21:15.782Z,81.23
2019-01-24T11:23:56.834Z,83.80
2019-01-24T11:26:37.408Z,74.73
2019-01-24T11:29:18.789Z,79.53
2019-01-24T11:32:00.004Z,71.80
2019-01-24T11:34:40.822Z,77.30
2019-01-24T11:37:21.510Z,77.90
2019-01-24T11:40:02.894Z,84.47
2019-01-24T11:42:43.426Z,91.07
2019-01-24T11:45:24.710Z,78.40
2019-01-24T11:48:07.173Z,77.80
2019-01-24T11:50:48.221Z,82.17
2019-01-24T11:53:29.402Z,83.17
2019-01-24T11:56:10.752Z,81.50
2019-01-24T12:01:59.222Z,77.07
2019-01-24T12:04:40.893Z,79.07
2019-01-24T12:07:22.165Z,87.03
2019-01-24T12:15:55.442Z,76.10
2019-01-24T12:18:36.209Z,75.17
2019-01-24T12:21:17.272Z,90.10
2019-01-24T12:23:58.520Z,68.83
2019-01-24T12:26:40.535Z,78.77
2019-01-24T12:29:09.476Z,72.63
2019-01-24T12:31:57.646Z,75.87
2019-01-24T12:34:39.105Z,69.73
2019-01-24T12:37:20.680Z,80.00
2019-01-24T12:40:01.787Z,71.47
2019-01-24T12:42:43.344Z,58.93
2019-01-24T12:45:24.071Z,70.87
2019-01-24T12:48:05.072Z,65.77
2019-01-24T12:50:46.022Z,73.73
2019-01-24T12:56:10.892Z,57.87
2019-01-24T12:58:51.712Z,73.07
2019-01-24T13:01:33.216Z,65.93
2019-01-24T13:04:15.023Z,63.33
2019-01-24T13:06:56.673Z,71.70
2019-01-24T13:09:38.182Z,66.93
2019-01-24T13:12:19.952Z,71.53
2019-01-24T13:15:01.542Z,67.40
2019-01-24T13:17:43.472Z,67.73
2019-01-24T13:20:24.232Z,64.03
2019-01-24T13:23:06.634Z,70.50
2019-01-24T13:25:47.632Z,60.10
2019-01-24T13:28:29.033Z,62.23
2019-01-24T13:31:10.672Z,64.73
2019-01-24T13:33:51.551Z,66.73
2019-01-24T13:36:33.002Z,63.17
2019-01-24T13:45:34.382Z,74.40
2019-01-24T13:48:15.090Z,63.07
2019-01-24T13:51:15.112Z,72.83
2019-01-24T13:53:57.574Z,61.57
2019-01-24T13:56:38.664Z,71.30
2019-01-24T13:59:19.669Z,64.17
2019-01-24T14:02:01.720Z,63.90
2019-01-24T14:04:44.578Z,69.60
2019-01-24T14:15:59.444Z,66.87
2019-01-24T14:18:47.610Z,85.13
2019-01-24T14:24:34.732Z,60.43
2019-01-24T14:27:15.708Z,65.20
2019-01-24T14:35:22.978Z,69.77
2019-01-24T14:41:12.460Z,67.13
2019-01-24T14:44:12.660Z,67.13
2019-01-24T14:46:53.997Z,62.90
2019-01-24T14:49:35.482Z,60.17
2019-01-24T14:52:16.388Z,70.20
2019-01-24T14:54:57.392Z,68.17
2019-01-24T14:57:38.254Z,65.30
2019-01-24T15:00:19.532Z,66.07
2019-01-24T15:03:00.582Z,69.70
2019-01-24T15:05:29.694Z,72.60
2019-01-24T15:08:38.497Z,67.90
2019-01-24T15:11:07.712Z,57.23
2019-01-24T15:13:55.863Z,67.13
2019-01-24T15:16:36.995Z,63.43
2019-01-24T15:19:17.518Z,71.20
2019-01-24T15:22:17.405Z,73.10
2019-01-24T15:24:58.862Z,67.50
2019-01-24T15:27:40.382Z,68.60
2019-01-24T15:30:21.662Z,76.67
2019-01-24T15:33:02.461Z,65.50
2019-01-24T15:35:43.315Z,69.53
2019-01-24T15:38:23.914Z,69.80
2019-01-24T15:41:04.972Z,75.23
2019-01-24T15:43:45.819Z,71.97
2019-01-24T15:46:26.469Z,73.43
2019-01-24T15:49:07.576Z,69.03
2019-01-24T15:52:07.617Z,60.83
2019-01-24T15:54:48.648Z,67.23
2019-01-24T15:57:29.895Z,65.80
2019-01-24T16:00:11.385Z,70.03
2019-01-24T16:02:53.242Z,65.63
2019-01-24T16:05:34.783Z,72.93
2019-01-24T16:08:16.501Z,70.80
2019-01-24T16:10:59.443Z,63.53
2019-01-24T16:13:40.485Z,71.17
2019-01-24T16:19:04.972Z,64.57
2019-01-24T16:21:53.524Z,66.47
2019-01-24T16:24:35.002Z,71.50
2019-01-24T16:27:16.292Z,77.07
2019-01-24T16:32:42.072Z,81.30
2019-01-24T16:35:23.582Z,71.80
2019-01-24T16:38:09.222Z,75.73
2019-01-24T16:40:46.952Z,70.60
2019-01-24T16:43:28.378Z,77.60
2019-01-24T16:48:54.096Z,80.47
2019-01-24T16:51:35.373Z,88.20
2019-01-24T16:54:17.496Z,82.03
2019-01-24T16:56:58.652Z,79.47
2019-01-24T17:02:44.926Z,89.40
2019-01-24T17:05:26.075Z,80.20
2019-01-24T17:08:06.997Z,74.57
2019-01-24T17:10:48.314Z,86.33
2019-01-24T17:13:29.348Z,74.57
2019-01-24T17:19:23.908Z,66.83
2019-01-24T17:22:04.842Z,71.30
2019-01-24T17:24:45.709Z,60.50
2019-01-24T17:27:26.771Z,59.60
2019-01-24T17:33:21.403Z,60.80
2019-01-24T17:36:02.931Z,63.83
2019-01-24T17:38:43.892Z,62.80
2019-01-24T17:41:25.382Z,61.67
2019-01-24T17:44:06.812Z,66.23
2019-01-24T17:46:48.465Z,60.27
2019-01-24T17:49:29.934Z,62.17
2019-01-24T17:55:29.383Z,65.17
2019-01-24T17:58:15.892Z,61.50
2019-01-24T18:00:57.054Z,63.23
2019-01-24T18:03:57.193Z,64.87
2019-01-24T18:09:57.802Z,77.97
2019-01-24T18:12:39.032Z,63.47
2019-01-24T18:15:20.352Z,61.40
2019-01-24T18:21:34.852Z,66.07
2019-01-24T18:24:23.383Z,66.03
2019-01-24T18:27:04.725Z,68.60
2019-01-24T18:29:46.333Z,67.83
2019-01-24T18:32:27.684Z,70.23
2019-01-24T18:35:09.045Z,64.73
2019-01-24T18:37:50.402Z,66.70
2019-01-24T18:41:14.492Z,66.30
2019-01-24T18:50:02.352Z,67.37
2019-01-24T18:52:44.122Z,69.57
2019-01-24T18:55:25.724Z,70.07
2019-01-24T18:58:06.693Z,62.90
2019-01-24T19:00:48.312Z,63.30
2019-01-24T19:06:39.362Z,58.90
2019-01-24T19:09:20.732Z,64.67
2019-01-24T19:12:02.882Z,60.27
2019-01-24T19:14:44.499Z,60.83
2019-01-24T19:17:25.310Z,60.87
2019-01-24T19:20:06.402Z,65.30
2019-01-24T19:22:47.686Z,56.80
2019-01-24T19:25:29.095Z,53.43
2019-01-24T19:28:09.916Z,54.53
2019-01-24T19:30:50.674Z,54.27
2019-01-24T19:33:32.738Z,57.97
2019-01-24T19:36:13.494Z,53.77
2019-01-24T19:38:54.300Z,59.73
2019-01-24T19:41:37.796Z,55.47
2019-01-24T19:44:19.203Z,57.60
2019-01-24T19:47:00.264Z,58.03
2019-01-24T19:49:41.217Z,57.33
2019-01-24T19:52:41.579Z,61.13
2019-01-24T19:55:12.033Z,62.17
2019-01-24T19:57:53.742Z,59.20
2019-01-24T20:00:35.243Z,54.30
2019-01-24T20:03:16.193Z,54.23
2019-01-24T20:05:59.062Z,57.53
2019-01-24T20:08:40.104Z,62.67
2019-01-24T20:11:21.771Z,57.03
2019-01-24T20:13:51.272Z,63.20
2019-01-24T20:16:39.993Z,58.30
2019-01-24T20:19:21.041Z,61.20
2019-01-24T20:22:02.385Z,60.50
2019-01-24T20:24:44.012Z,65.43
2019-01-24T20:27:25.852Z,62.40
2019-01-24T20:33:17.872Z,68.53
2019-01-24T20:35:59.754Z,62.77
2019-01-24T20:38:41.532Z,61.10
2019-01-24T20:44:17.902Z,64.13
2019-01-24T20:46:59.191Z,68.63
2019-01-24T20:49:40.358Z,68.07
2019-01-24T20:52:20.970Z,72.33
2019-01-24T20:55:01.834Z,70.00
2019-01-24T20:57:50.106Z,63.07
2019-01-24T21:03:55.284Z,63.10
2019-01-24T21:06:33.532Z,65.70
2019-01-24T21:09:14.870Z,67.70
2019-01-24T21:11:56.454Z,68.47
2019-01-24T21:14:37.426Z,66.13
2019-01-24T21:17:18.555Z,64.13
2019-01-24T21:20:01.104Z,62.07
2019-01-24T21:22:42.372Z,78.40
2019-01-24T21:25:24.503Z,69.77
2019-01-24T21:28:26.302Z,72.20
2019-01-24T21:31:08.055Z,69.17
2019-01-24T21:33:49.202Z,63.60
2019-01-24T21:36:30.902Z,68.20
2019-01-24T21:39:12.422Z,73.73
2019-01-24T21:41:53.961Z,77.90
2019-01-24T21:44:34.864Z,71.40
2019-01-24T21:47:15.701Z,69.17
2019-01-24T21:49:57.472Z,71.97
2019-01-24T21:52:38.112Z,70.80
2019-01-24T21:55:18.972Z,71.87
2019-01-24T21:57:59.612Z,73.07
2019-01-24T22:00:40.424Z,71.97
2019-01-24T22:03:21.612Z,72.10
2019-01-24T22:12:05.282Z,68.10
2019-01-24T22:14:45.831Z,77.90
2019-01-24T22:17:27.072Z,73.57
2019-01-24T22:20:08.972Z,67.83
2019-01-24T22:22:50.375Z,72.87
2019-01-24T22:25:31.366Z,68.03
2019-01-24T22:28:12.612Z,77.47
2019-01-24T22:30:54.222Z,70.47
2019-01-24T22:33:35.412Z,78.40
2019-01-24T22:36:17.182Z,69.60
2019-01-24T22:38:58.212Z,74.17
2019-01-24T22:41:38.892Z,75.07
2019-01-24T22:47:26.734Z,77.93
2019-01-24T22:50:08.083Z,79.97
2019-01-24T22:52:49.402Z,79.40
2019-01-24T22:55:31.213Z,74.73
2019-01-24T22:58:12.471Z,74.60
2019-01-24T23:00:53.172Z,83.03
2019-01-24T23:03:53.942Z,74.60
2019-01-24T23:06:35.202Z,78.17
2019-01-24T23:09:17.231Z,79.77
2019-01-24T23:11:58.337Z,73.03
2019-01-24T23:14:40.132Z,80.00
2019-01-24T23:17:21.812Z,81.90
2019-01-24T23:19:50.902Z,79.10
2019-01-24T23:22:39.342Z,79.27
2019-01-24T23:25:27.791Z,89.17
2019-01-24T23:28:09.652Z,83.63
2019-01-24T23:30:50.762Z,79.30
2019-01-24T23:36:19.833Z,74.13
2019-01-24T23:41:40.022Z,76.67
2019-01-24T23:44:28.827Z,69.83
2019-01-24T23:47:17.437Z,72.93
2019-01-24T23:50:36.952Z,72.77
2019-01-24T23:52:47.962Z,75.80
2019-01-24T23:55:29.102Z,68.77
2019-01-24T23:58:10.616Z,64.83
